Terminal Aerodrome Forecast
Issued by NWS

Home | Current Version | Previous Version | Text Only | Print | Product List | Glossary On
Versions: 1 2 3 4 5 6 7 8 9 10 11 12 13 14 15 16 17 18 19 20 21
000
FTUS43 KDVN 180526
TAFCID
TAF
KCID 180526Z 1806/1906 24006KT 1 1/2SM BR OVC003
      TEMPO 1806/1810 3/4SM BR OVC002
     FM181000 23005KT 4SM BR OVC006
     FM181300 20007KT P6SM SKC=

USA.gov is the U.S. government's official web portal to all federal, state and local government web resources and services.